sensor_id;sensor_type;location;lat;lon;timestamp;temperature;humidity
19496;DHT22;9888;48.606;9.630;2023-06-26T00:01:16;12.70;99.90
19496;DHT22;9888;48.606;9.630;2023-06-26T00:03:43;12.60;99.90
19496;DHT22;9888;48.606;9.630;2023-06-26T00:06:11;12.60;99.90
19496;DHT22;9888;48.606;9.630;2023-06-26T00:08:38;12.50;99.90
19496;DHT22;9888;48.606;9.630;2023-06-26T00:11:06;12.50;99.90
19496;DHT22;9888;48.606;9.630;2023-06-26T00:13:34;12.50;99.90
19496;DHT22;9888;48.606;9.630;2023-06-26T00:16:02;12.50;99.90
19496;DHT22;9888;48.606;9.630;2023-06-26T00:18:31;12.50;99.90
19496;DHT22;9888;48.606;9.630;2023-06-26T00:20:58;12.50;99.90
19496;DHT22;9888;48.606;9.630;2023-06-26T00:23:25;12.40;99.90
19496;DHT22;9888;48.606;9.630;2023-06-26T00:25:54;12.40;99.90
19496;DHT22;9888;48.606;9.630;2023-06-26T00:28:22;12.40;99.90
19496;DHT22;9888;48.606;9.630;2023-06-26T00:30:52;12.30;99.90
19496;DHT22;9888;48.606;9.630;2023-06-26T00:33:20;12.30;99.90
19496;DHT22;9888;48.606;9.630;2023-06-26T00:35:51;12.30;99.90
19496;DHT22;9888;48.606;9.630;2023-06-26T00:38:19;12.30;99.90
19496;DHT22;9888;48.606;9.630;2023-06-26T00:40:47;12.30;99.90
19496;DHT22;9888;48.606;9.630;2023-06-26T00:43:15;12.40;99.90
19496;DHT22;9888;48.606;9.630;2023-06-26T00:45:43;12.40;99.90
19496;DHT22;9888;48.606;9.630;2023-06-26T00:48:11;12.40;99.90
19496;DHT22;9888;48.606;9.630;2023-06-26T00:50:42;12.30;99.90
19496;DHT22;9888;48.606;9.630;2023-06-26T00:53:10;12.30;99.90
19496;DHT22;9888;48.606;9.630;2023-06-26T00:55:39;12.30;99.90
19496;DHT22;9888;48.606;9.630;2023-06-26T00:58:07;12.30;99.90
19496;DHT22;9888;48.606;9.630;2023-06-26T01:00:41;12.30;99.90
19496;DHT22;9888;48.606;9.630;2023-06-26T01:03:14;12.30;99.90
19496;DHT22;9888;48.606;9.630;2023-06-26T01:05:56;12.20;99.90
19496;DHT22;9888;48.606;9.630;2023-06-26T01:08:26;12.30;99.90
19496;DHT22;9888;48.606;9.630;2023-06-26T01:10:59;12.30;99.90
19496;DHT22;9888;48.606;9.630;2023-06-26T01:13:26;12.20;99.90
19496;DHT22;9888;48.606;9.630;2023-06-26T01:15:54;12.20;99.90
19496;DHT22;9888;48.606;9.630;2023-06-26T01:18:28;12.20;99.90
19496;DHT22;9888;48.606;9.630;2023-06-26T01:20:56;12.20;99.90
19496;DHT22;9888;48.606;9.630;2023-06-26T01:28:43;12.20;99.90
19496;DHT22;9888;48.606;9.630;2023-06-26T01:31:11;12.10;99.90
19496;DHT22;9888;48.606;9.630;2023-06-26T01:33:40;12.10;99.90
19496;DHT22;9888;48.606;9.630;2023-06-26T01:36:08;12.10;99.90
19496;DHT22;9888;48.606;9.630;2023-06-26T01:38:36;12.20;99.90
19496;DHT22;9888;48.606;9.630;2023-06-26T01:41:07;12.10;99.90
19496;DHT22;9888;48.606;9.630;2023-06-26T01:44:08;12.10;99.90
19496;DHT22;9888;48.606;9.630;2023-06-26T01:52:09;12.00;99.90
19496;DHT22;9888;48.606;9.630;2023-06-26T01:54:56;12.00;99.90
19496;DHT22;9888;48.606;9.630;2023-06-26T01:57:26;12.00;99.90
19496;DHT22;9888;48.606;9.630;2023-06-26T01:59:55;12.00;99.90
19496;DHT22;9888;48.606;9.630;2023-06-26T02:05:39;11.90;99.90
19496;DHT22;9888;48.606;9.630;2023-06-26T02:08:08;11.90;99.90
19496;DHT22;9888;48.606;9.630;2023-06-26T02:10:45;11.90;99.90
19496;DHT22;9888;48.606;9.630;2023-06-26T02:13:22;11.90;99.90
19496;DHT22;9888;48.606;9.630;2023-06-26T02:15:49;11.80;99.90
19496;DHT22;9888;48.606;9.630;2023-06-26T02:18:17;11.80;99.90
19496;DHT22;9888;48.606;9.630;2023-06-26T02:20:46;11.90;99.90
19496;DHT22;9888;48.606;9.630;2023-06-26T02:23:14;11.90;99.90
19496;DHT22;9888;48.606;9.630;2023-06-26T02:25:43;11.90;99.90
19496;DHT22;9888;48.606;9.630;2023-06-26T02:28:10;11.90;99.90
19496;DHT22;9888;48.606;9.630;2023-06-26T02:30:37;11.90;99.90
19496;DHT22;9888;48.606;9.630;2023-06-26T02:33:05;11.80;99.90
19496;DHT22;9888;48.606;9.630;2023-06-26T02:35:33;11.80;99.90
19496;DHT22;9888;48.606;9.630;2023-06-26T02:38:00;11.80;99.90
19496;DHT22;9888;48.606;9.630;2023-06-26T02:40:27;11.80;99.90
19496;DHT22;9888;48.606;9.630;2023-06-26T02:42:55;11.80;99.90
19496;DHT22;9888;48.606;9.630;2023-06-26T02:45:25;11.80;99.90
19496;DHT22;9888;48.606;9.630;2023-06-26T02:47:54;11.70;99.90
19496;DHT22;9888;48.606;9.630;2023-06-26T02:50:22;11.70;99.90
19496;DHT22;9888;48.606;9.630;2023-06-26T02:52:51;11.70;99.90
19496;DHT22;9888;48.606;9.630;2023-06-26T02:55:19;11.70;99.90
19496;DHT22;9888;48.606;9.630;2023-06-26T02:57:49;11.70;99.90
19496;DHT22;9888;48.606;9.630;2023-06-26T03:00:20;11.60;99.90
19496;DHT22;9888;48.606;9.630;2023-06-26T03:02:48;11.60;99.90
19496;DHT22;9888;48.606;9.630;2023-06-26T03:05:15;11.60;99.90
19496;DHT22;9888;48.606;9.630;2023-06-26T03:07:43;11.60;99.90
19496;DHT22;9888;48.606;9.630;2023-06-26T03:10:10;11.60;99.90
19496;DHT22;9888;48.606;9.630;2023-06-26T03:12:37;11.70;99.90
19496;DHT22;9888;48.606;9.630;2023-06-26T03:15:06;11.60;99.90
19496;DHT22;9888;48.606;9.630;2023-06-26T03:17:36;11.50;99.90
19496;DHT22;9888;48.606;9.630;2023-06-26T03:20:03;11.50;99.90
19496;DHT22;9888;48.606;9.630;2023-06-26T03:22:34;11.50;99.90
19496;DHT22;9888;48.606;9.630;2023-06-26T03:25:03;11.50;99.90
19496;DHT22;9888;48.606;9.630;2023-06-26T03:27:32;11.50;99.90
19496;DHT22;9888;48.606;9.630;2023-06-26T03:30:00;11.50;99.90
19496;DHT22;9888;48.606;9.630;2023-06-26T03:32:29;11.50;99.90
19496;DHT22;9888;48.606;9.630;2023-06-26T03:34:56;11.50;99.90
19496;DHT22;9888;48.606;9.630;2023-06-26T03:37:24;11.50;99.90
19496;DHT22;9888;48.606;9.630;2023-06-26T03:39:51;11.50;99.90
19496;DHT22;9888;48.606;9.630;2023-06-26T03:42:21;11.50;99.90
19496;DHT22;9888;48.606;9.630;2023-06-26T03:45:06;11.60;99.90
19496;DHT22;9888;48.606;9.630;2023-06-26T03:47:37;11.50;99.90
19496;DHT22;9888;48.606;9.630;2023-06-26T03:50:08;11.60;99.90
19496;DHT22;9888;48.606;9.630;2023-06-26T03:53:05;11.60;99.90
19496;DHT22;9888;48.606;9.630;2023-06-26T03:55:34;11.60;99.90
19496;DHT22;9888;48.606;9.630;2023-06-26T03:58:02;11.70;99.90
19496;DHT22;9888;48.606;9.630;2023-06-26T04:00:30;11.70;99.90
19496;DHT22;9888;48.606;9.630;2023-06-26T04:02:58;11.80;99.90
19496;DHT22;9888;48.606;9.630;2023-06-26T04:05:25;11.80;99.90
19496;DHT22;9888;48.606;9.630;2023-06-26T04:07:56;11.90;99.90
19496;DHT22;9888;48.606;9.630;2023-06-26T04:10:23;12.00;99.90
19496;DHT22;9888;48.606;9.630;2023-06-26T04:12:50;12.10;99.90
19496;DHT22;9888;48.606;9.630;2023-06-26T04:15:18;12.20;99.90
19496;DHT22;9888;48.606;9.630;2023-06-26T04:17:48;12.30;99.90
19496;DHT22;9888;48.606;9.630;2023-06-26T04:20:15;12.40;99.90
19496;DHT22;9888;48.606;9.630;2023-06-26T04:22:44;12.60;99.90
19496;DHT22;9888;48.606;9.630;2023-06-26T04:25:12;12.70;99.90
19496;DHT22;9888;48.606;9.630;2023-06-26T04:27:40;12.90;99.90
19496;DHT22;9888;48.606;9.630;2023-06-26T04:30:08;13.00;99.90
19496;DHT22;9888;48.606;9.630;2023-06-26T04:32:43;13.20;99.90
19496;DHT22;9888;48.606;9.630;2023-06-26T04:35:22;13.40;99.90
19496;DHT22;9888;48.606;9.630;2023-06-26T04:38:07;13.50;99.90
19496;DHT22;9888;48.606;9.630;2023-06-26T04:40:36;13.70;99.90
19496;DHT22;9888;48.606;9.630;2023-06-26T04:43:07;13.90;99.90
19496;DHT22;9888;48.606;9.630;2023-06-26T04:45:36;14.10;99.90
19496;DHT22;9888;48.606;9.630;2023-06-26T04:48:05;14.30;99.90
19496;DHT22;9888;48.606;9.630;2023-06-26T04:50:37;14.40;99.90
19496;DHT22;9888;48.606;9.630;2023-06-26T04:53:06;14.60;99.90
19496;DHT22;9888;48.606;9.630;2023-06-26T04:55:38;14.80;99.90
19496;DHT22;9888;48.606;9.630;2023-06-26T04:58:13;14.90;99.90
19496;DHT22;9888;48.606;9.630;2023-06-26T05:00:40;15.10;99.90
19496;DHT22;9888;48.606;9.630;2023-06-26T05:03:21;15.30;99.90
19496;DHT22;9888;48.606;9.630;2023-06-26T05:05:50;15.50;99.90
19496;DHT22;9888;48.606;9.630;2023-06-26T05:08:23;15.60;99.90
19496;DHT22;9888;48.606;9.630;2023-06-26T05:11:02;15.80;99.90
19496;DHT22;9888;48.606;9.630;2023-06-26T05:13:31;16.00;99.90
19496;DHT22;9888;48.606;9.630;2023-06-26T05:15:59;16.20;99.90
19496;DHT22;9888;48.606;9.630;2023-06-26T05:18:27;16.30;99.90
19496;DHT22;9888;48.606;9.630;2023-06-26T05:20:56;16.50;99.90
19496;DHT22;9888;48.606;9.630;2023-06-26T05:23:25;16.70;99.90
19496;DHT22;9888;48.606;9.630;2023-06-26T05:25:53;16.90;99.90
19496;DHT22;9888;48.606;9.630;2023-06-26T05:28:20;17.10;99.90
19496;DHT22;9888;48.606;9.630;2023-06-26T05:30:48;17.20;99.90
19496;DHT22;9888;48.606;9.630;2023-06-26T05:33:18;17.40;99.90
19496;DHT22;9888;48.606;9.630;2023-06-26T05:35:46;17.60;99.90
19496;DHT22;9888;48.606;9.630;2023-06-26T05:38:16;17.80;99.90
19496;DHT22;9888;48.606;9.630;2023-06-26T05:40:44;17.90;99.90
19496;DHT22;9888;48.606;9.630;2023-06-26T05:43:11;18.10;99.90
19496;DHT22;9888;48.606;9.630;2023-06-26T05:45:38;18.20;99.90
19496;DHT22;9888;48.606;9.630;2023-06-26T05:48:07;18.40;99.90
19496;DHT22;9888;48.606;9.630;2023-06-26T05:50:34;18.50;99.90
19496;DHT22;9888;48.606;9.630;2023-06-26T05:53:03;18.70;99.90
19496;DHT22;9888;48.606;9.630;2023-06-26T05:55:32;18.90;99.90
19496;DHT22;9888;48.606;9.630;2023-06-26T05:58:00;19.10;99.90
19496;DHT22;9888;48.606;9.630;2023-06-26T06:00:28;19.30;99.90
19496;DHT22;9888;48.606;9.630;2023-06-26T06:02:56;19.50;99.90
19496;DHT22;9888;48.606;9.630;2023-06-26T06:05:23;19.70;99.90
19496;DHT22;9888;48.606;9.630;2023-06-26T06:07:50;19.80;99.90
19496;DHT22;9888;48.606;9.630;2023-06-26T06:10:18;20.10;99.90
19496;DHT22;9888;48.606;9.630;2023-06-26T06:12:46;20.20;99.90
19496;DHT22;9888;48.606;9.630;2023-06-26T06:15:15;20.40;99.90
19496;DHT22;9888;48.606;9.630;2023-06-26T06:17:43;20.60;99.90
19496;DHT22;9888;48.606;9.630;2023-06-26T06:20:11;20.80;99.90
19496;DHT22;9888;48.606;9.630;2023-06-26T06:22:38;21.00;99.90
19496;DHT22;9888;48.606;9.630;2023-06-26T06:25:08;21.20;99.90
19496;DHT22;9888;48.606;9.630;2023-06-26T06:27:36;21.40;99.90
19496;DHT22;9888;48.606;9.630;2023-06-26T06:30:04;21.70;99.90
19496;DHT22;9888;48.606;9.630;2023-06-26T06:32:33;21.90;99.90
19496;DHT22;9888;48.606;9.630;2023-06-26T06:35:02;22.20;99.90
19496;DHT22;9888;48.606;9.630;2023-06-26T06:37:41;22.50;99.90
19496;DHT22;9888;48.606;9.630;2023-06-26T06:40:11;22.80;99.90
19496;DHT22;9888;48.606;9.630;2023-06-26T06:42:46;23.20;99.90
19496;DHT22;9888;48.606;9.630;2023-06-26T06:45:37;23.50;99.90
19496;DHT22;9888;48.606;9.630;2023-06-26T06:48:07;23.80;99.90
19496;DHT22;9888;48.606;9.630;2023-06-26T06:50:34;24.00;99.90
19496;DHT22;9888;48.606;9.630;2023-06-26T06:53:06;24.20;99.90
19496;DHT22;9888;48.606;9.630;2023-06-26T06:55:50;24.40;99.90
19496;DHT22;9888;48.606;9.630;2023-06-26T06:58:26;24.50;99.90
19496;DHT22;9888;48.606;9.630;2023-06-26T07:00:59;24.60;99.90
19496;DHT22;9888;48.606;9.630;2023-06-26T07:03:26;24.70;99.90
19496;DHT22;9888;48.606;9.630;2023-06-26T07:05:55;24.80;99.90
19496;DHT22;9888;48.606;9.630;2023-06-26T07:08:23;24.90;99.90
19496;DHT22;9888;48.606;9.630;2023-06-26T07:10:52;25.10;99.90
19496;DHT22;9888;48.606;9.630;2023-06-26T07:13:35;25.20;99.90
19496;DHT22;9888;48.606;9.630;2023-06-26T07:16:05;25.20;99.90
19496;DHT22;9888;48.606;9.630;2023-06-26T07:18:34;25.30;99.90
19496;DHT22;9888;48.606;9.630;2023-06-26T07:24:30;25.50;99.90
19496;DHT22;9888;48.606;9.630;2023-06-26T07:27:11;25.50;99.90
19496;DHT22;9888;48.606;9.630;2023-06-26T07:29:54;25.60;99.90
19496;DHT22;9888;48.606;9.630;2023-06-26T07:35:45;25.70;99.90
19496;DHT22;9888;48.606;9.630;2023-06-26T07:38:14;26.00;99.90
19496;DHT22;9888;48.606;9.630;2023-06-26T07:40:45;26.10;99.90
19496;DHT22;9888;48.606;9.630;2023-06-26T07:43:14;26.30;99.90
19496;DHT22;9888;48.606;9.630;2023-06-26T07:49:24;26.20;99.90
19496;DHT22;9888;48.606;9.630;2023-06-26T07:52:21;26.20;99.90
19496;DHT22;9888;48.606;9.630;2023-06-26T07:54:53;26.30;99.90
19496;DHT22;9888;48.606;9.630;2023-06-26T07:57:25;26.10;99.90
19496;DHT22;9888;48.606;9.630;2023-06-26T07:59:53;26.10;99.90
19496;DHT22;9888;48.606;9.630;2023-06-26T08:02:28;26.10;99.90
19496;DHT22;9888;48.606;9.630;2023-06-26T08:04:56;26.10;99.90
19496;DHT22;9888;48.606;9.630;2023-06-26T08:07:23;26.10;99.90
19496;DHT22;9888;48.606;9.630;2023-06-26T08:09:52;26.10;99.90
19496;DHT22;9888;48.606;9.630;2023-06-26T08:12:24;26.10;99.90
19496;DHT22;9888;48.606;9.630;2023-06-26T08:14:55;26.10;99.90
19496;DHT22;9888;48.606;9.630;2023-06-26T08:17:32;26.20;99.90
19496;DHT22;9888;48.606;9.630;2023-06-26T08:20:05;26.50;99.90
19496;DHT22;9888;48.606;9.630;2023-06-26T08:22:36;26.40;99.90
19496;DHT22;9888;48.606;9.630;2023-06-26T08:25:06;26.20;99.90
19496;DHT22;9888;48.606;9.630;2023-06-26T08:30:51;26.10;99.90
19496;DHT22;9888;48.606;9.630;2023-06-26T08:36:43;26.50;99.90
19496;DHT22;9888;48.606;9.630;2023-06-26T08:39:12;26.40;99.90
19496;DHT22;9888;48.606;9.630;2023-06-26T08:41:45;26.30;99.90
19496;DHT22;9888;48.606;9.630;2023-06-26T08:44:15;26.40;99.90
19496;DHT22;9888;48.606;9.630;2023-06-26T08:46:45;26.50;99.90
19496;DHT22;9888;48.606;9.630;2023-06-26T08:52:22;26.40;99.90
19496;DHT22;9888;48.606;9.630;2023-06-26T08:54:56;26.40;99.90
19496;DHT22;9888;48.606;9.630;2023-06-26T08:57:26;26.70;99.90
19496;DHT22;9888;48.606;9.630;2023-06-26T08:59:55;26.60;99.90
19496;DHT22;9888;48.606;9.630;2023-06-26T09:02:25;26.70;99.90
19496;DHT22;9888;48.606;9.630;2023-06-26T09:04:59;26.70;99.90
19496;DHT22;9888;48.606;9.630;2023-06-26T09:07:28;26.90;99.90
19496;DHT22;9888;48.606;9.630;2023-06-26T09:09:56;26.90;99.90
19496;DHT22;9888;48.606;9.630;2023-06-26T09:12:26;26.90;99.90
19496;DHT22;9888;48.606;9.630;2023-06-26T09:14:56;27.10;99.90
19496;DHT22;9888;48.606;9.630;2023-06-26T09:17:33;27.30;99.90
19496;DHT22;9888;48.606;9.630;2023-06-26T09:20:09;27.60;99.90
19496;DHT22;9888;48.606;9.630;2023-06-26T09:22:42;27.70;99.90
19496;DHT22;9888;48.606;9.630;2023-06-26T09:25:11;27.70;99.90
19496;DHT22;9888;48.606;9.630;2023-06-26T09:27:40;27.80;99.90
19496;DHT22;9888;48.606;9.630;2023-06-26T09:30:10;28.00;99.90
19496;DHT22;9888;48.606;9.630;2023-06-26T09:33:37;28.10;99.90
19496;DHT22;9888;48.606;9.630;2023-06-26T09:36:38;28.30;99.90
19496;DHT22;9888;48.606;9.630;2023-06-26T09:39:13;28.60;99.90
19496;DHT22;9888;48.606;9.630;2023-06-26T09:41:42;28.80;99.90
19496;DHT22;9888;48.606;9.630;2023-06-26T09:44:11;28.80;99.90
19496;DHT22;9888;48.606;9.630;2023-06-26T09:47:07;28.40;99.90
19496;DHT22;9888;48.606;9.630;2023-06-26T09:49:34;28.80;99.90
19496;DHT22;9888;48.606;9.630;2023-06-26T09:52:06;28.90;99.90
19496;DHT22;9888;48.606;9.630;2023-06-26T09:54:35;28.90;99.90
19496;DHT22;9888;48.606;9.630;2023-06-26T09:57:11;28.80;99.90
19496;DHT22;9888;48.606;9.630;2023-06-26T09:59:40;28.80;99.90
19496;DHT22;9888;48.606;9.630;2023-06-26T10:02:18;29.00;99.90
19496;DHT22;9888;48.606;9.630;2023-06-26T10:08:23;29.60;99.90
19496;DHT22;9888;48.606;9.630;2023-06-26T10:10:54;29.90;99.90
19496;DHT22;9888;48.606;9.630;2023-06-26T10:13:30;30.00;99.90
19496;DHT22;9888;48.606;9.630;2023-06-26T10:16:01;30.40;99.60
19496;DHT22;9888;48.606;9.630;2023-06-26T10:18:32;30.40;99.20
19496;DHT22;9888;48.606;9.630;2023-06-26T10:21:04;30.40;98.70
19496;DHT22;9888;48.606;9.630;2023-06-26T10:23:36;30.60;98.90
19496;DHT22;9888;48.606;9.630;2023-06-26T10:26:07;30.60;99.60
19496;DHT22;9888;48.606;9.630;2023-06-26T10:28:37;31.00;97.90
19496;DHT22;9888;48.606;9.630;2023-06-26T10:31:12;31.10;97.80
19496;DHT22;9888;48.606;9.630;2023-06-26T10:33:42;30.80;97.30
19496;DHT22;9888;48.606;9.630;2023-06-26T10:36:26;30.80;97.00
19496;DHT22;9888;48.606;9.630;2023-06-26T10:39:01;31.40;96.30
19496;DHT22;9888;48.606;9.630;2023-06-26T10:41:39;31.90;96.80
19496;DHT22;9888;48.606;9.630;2023-06-26T10:44:17;32.10;97.40
19496;DHT22;9888;48.606;9.630;2023-06-26T10:46:55;32.20;98.00
19496;DHT22;9888;48.606;9.630;2023-06-26T10:49:34;31.90;98.60
19496;DHT22;9888;48.606;9.630;2023-06-26T10:52:04;31.20;97.30
19496;DHT22;9888;48.606;9.630;2023-06-26T10:58:05;30.50;98.30
19496;DHT22;9888;48.606;9.630;2023-06-26T11:01:21;30.20;98.90
19496;DHT22;9888;48.606;9.630;2023-06-26T11:04:00;30.40;98.20
19496;DHT22;9888;48.606;9.630;2023-06-26T11:07:33;30.20;97.90
19496;DHT22;9888;48.606;9.630;2023-06-26T11:10:15;31.40;97.90
19496;DHT22;9888;48.606;9.630;2023-06-26T11:12:50;31.90;96.80
19496;DHT22;9888;48.606;9.630;2023-06-26T11:15:52;32.30;96.00
19496;DHT22;9888;48.606;9.630;2023-06-26T11:18:21;31.80;96.60
19496;DHT22;9888;48.606;9.630;2023-06-26T11:20:52;31.10;97.30
19496;DHT22;9888;48.606;9.630;2023-06-26T11:23:33;30.30;96.70
19496;DHT22;9888;48.606;9.630;2023-06-26T11:26:14;29.70;97.40
19496;DHT22;9888;48.606;9.630;2023-06-26T11:28:52;28.90;97.20
19496;DHT22;9888;48.606;9.630;2023-06-26T11:34:43;28.00;98.50
19496;DHT22;9888;48.606;9.630;2023-06-26T11:40:19;27.60;99.90
19496;DHT22;9888;48.606;9.630;2023-06-26T11:42:54;27.80;99.90
19496;DHT22;9888;48.606;9.630;2023-06-26T11:45:32;27.80;99.90
19496;DHT22;9888;48.606;9.630;2023-06-26T11:48:03;27.80;99.90
19496;DHT22;9888;48.606;9.630;2023-06-26T11:50:39;27.80;99.90
19496;DHT22;9888;48.606;9.630;2023-06-26T11:53:07;27.70;99.90
19496;DHT22;9888;48.606;9.630;2023-06-26T12:01:33;28.00;99.90
19496;DHT22;9888;48.606;9.630;2023-06-26T12:04:07;28.60;99.90
19496;DHT22;9888;48.606;9.630;2023-06-26T12:06:38;28.90;99.90
19496;DHT22;9888;48.606;9.630;2023-06-26T12:09:18;29.40;99.90
19496;DHT22;9888;48.606;9.630;2023-06-26T12:11:48;30.20;99.90
19496;DHT22;9888;48.606;9.630;2023-06-26T12:14:32;31.50;99.90
19496;DHT22;9888;48.606;9.630;2023-06-26T12:17:12;32.40;98.70
19496;DHT22;9888;48.606;9.630;2023-06-26T12:19:59;32.30;98.40
19496;DHT22;9888;48.606;9.630;2023-06-26T12:22:36;31.50;97.90
19496;DHT22;9888;48.606;9.630;2023-06-26T12:25:08;30.50;98.30
19496;DHT22;9888;48.606;9.630;2023-06-26T12:27:37;30.10;98.50
19496;DHT22;9888;48.606;9.630;2023-06-26T12:30:04;29.80;99.20
19496;DHT22;9888;48.606;9.630;2023-06-26T12:32:32;29.50;99.00
19496;DHT22;9888;48.606;9.630;2023-06-26T12:34:59;29.20;99.80
19496;DHT22;9888;48.606;9.630;2023-06-26T12:37:35;29.20;99.90
19496;DHT22;9888;48.606;9.630;2023-06-26T12:40:03;29.40;99.90
19496;DHT22;9888;48.606;9.630;2023-06-26T12:42:34;29.60;99.90
19496;DHT22;9888;48.606;9.630;2023-06-26T12:45:11;29.80;99.90
19496;DHT22;9888;48.606;9.630;2023-06-26T12:47:42;30.00;99.90
19496;DHT22;9888;48.606;9.630;2023-06-26T12:50:09;29.90;99.90
19496;DHT22;9888;48.606;9.630;2023-06-26T12:52:37;29.80;99.90
19496;DHT22;9888;48.606;9.630;2023-06-26T12:55:05;29.90;99.90
19496;DHT22;9888;48.606;9.630;2023-06-26T12:57:38;30.50;99.90
19496;DHT22;9888;48.606;9.630;2023-06-26T13:00:14;31.60;99.90
19496;DHT22;9888;48.606;9.630;2023-06-26T13:03:08;33.00;97.40
19496;DHT22;9888;48.606;9.630;2023-06-26T13:05:41;32.30;96.40
19496;DHT22;9888;48.606;9.630;2023-06-26T13:08:09;31.80;97.40
19496;DHT22;9888;48.606;9.630;2023-06-26T13:10:39;31.60;96.30
19496;DHT22;9888;48.606;9.630;2023-06-26T13:13:09;31.60;95.80
19496;DHT22;9888;48.606;9.630;2023-06-26T13:15:38;31.20;96.50
19496;DHT22;9888;48.606;9.630;2023-06-26T13:18:09;31.10;97.40
19496;DHT22;9888;48.606;9.630;2023-06-26T13:20:42;32.30;95.30
19496;DHT22;9888;48.606;9.630;2023-06-26T13:23:22;33.70;95.80
19496;DHT22;9888;48.606;9.630;2023-06-26T13:26:21;34.50;93.50
19496;DHT22;9888;48.606;9.630;2023-06-26T13:28:50;34.40;94.30
19496;DHT22;9888;48.606;9.630;2023-06-26T13:31:23;34.50;93.60
19496;DHT22;9888;48.606;9.630;2023-06-26T13:33:53;34.80;94.50
19496;DHT22;9888;48.606;9.630;2023-06-26T13:36:20;35.00;93.10
19496;DHT22;9888;48.606;9.630;2023-06-26T13:38:57;34.70;94.40
19496;DHT22;9888;48.606;9.630;2023-06-26T13:41:27;36.60;95.50
19496;DHT22;9888;48.606;9.630;2023-06-26T13:43:55;37.50;90.60
19496;DHT22;9888;48.606;9.630;2023-06-26T13:46:23;35.60;91.60
19496;DHT22;9888;48.606;9.630;2023-06-26T13:48:52;34.00;92.90
19496;DHT22;9888;48.606;9.630;2023-06-26T13:51:21;33.30;94.50
19496;DHT22;9888;48.606;9.630;2023-06-26T13:53:50;34.60;93.60
19496;DHT22;9888;48.606;9.630;2023-06-26T13:56:20;34.30;93.00
19496;DHT22;9888;48.606;9.630;2023-06-26T13:58:51;33.90;93.90
19496;DHT22;9888;48.606;9.630;2023-06-26T14:01:23;34.10;93.70
19496;DHT22;9888;48.606;9.630;2023-06-26T14:03:56;33.70;93.20
19496;DHT22;9888;48.606;9.630;2023-06-26T14:09:45;34.40;92.90
19496;DHT22;9888;48.606;9.630;2023-06-26T14:12:30;32.50;94.20
19496;DHT22;9888;48.606;9.630;2023-06-26T14:14:58;31.40;95.00
19496;DHT22;9888;48.606;9.630;2023-06-26T14:17:27;31.20;95.20
19496;DHT22;9888;48.606;9.630;2023-06-26T14:19:54;30.70;95.70
19496;DHT22;9888;48.606;9.630;2023-06-26T14:22:23;30.00;96.70
19496;DHT22;9888;48.606;9.630;2023-06-26T14:24:55;29.30;97.70
19496;DHT22;9888;48.606;9.630;2023-06-26T14:27:55;28.70;98.80
19496;DHT22;9888;48.606;9.630;2023-06-26T14:30:28;28.90;99.40
19496;DHT22;9888;48.606;9.630;2023-06-26T14:33:00;30.30;98.70
19496;DHT22;9888;48.606;9.630;2023-06-26T14:35:27;31.10;97.80
19496;DHT22;9888;48.606;9.630;2023-06-26T14:37:56;31.60;96.80
19496;DHT22;9888;48.606;9.630;2023-06-26T14:40:23;31.70;97.10
19496;DHT22;9888;48.606;9.630;2023-06-26T14:42:52;32.90;97.30
19496;DHT22;9888;48.606;9.630;2023-06-26T14:45:22;33.50;94.40
19496;DHT22;9888;48.606;9.630;2023-06-26T14:47:51;32.80;94.70
19496;DHT22;9888;48.606;9.630;2023-06-26T14:50:18;32.00;95.20
19496;DHT22;9888;48.606;9.630;2023-06-26T14:52:46;31.60;96.00
19496;DHT22;9888;48.606;9.630;2023-06-26T14:55:14;31.90;95.70
19496;DHT22;9888;48.606;9.630;2023-06-26T14:58:14;31.30;95.40
19496;DHT22;9888;48.606;9.630;2023-06-26T15:00:41;29.80;95.70
19496;DHT22;9888;48.606;9.630;2023-06-26T15:03:41;28.90;97.20
19496;DHT22;9888;48.606;9.630;2023-06-26T15:06:09;29.60;97.40
19496;DHT22;9888;48.606;9.630;2023-06-26T15:08:37;30.20;96.50
19496;DHT22;9888;48.606;9.630;2023-06-26T15:11:04;30.60;96.60
19496;DHT22;9888;48.606;9.630;2023-06-26T15:13:32;31.00;95.20
19496;DHT22;9888;48.606;9.630;2023-06-26T15:15:59;31.40;95.40
19496;DHT22;9888;48.606;9.630;2023-06-26T15:18:27;31.00;93.70
19496;DHT22;9888;48.606;9.630;2023-06-26T15:20:55;31.00;95.10
19496;DHT22;9888;48.606;9.630;2023-06-26T15:23:22;31.70;93.90
19496;DHT22;9888;48.606;9.630;2023-06-26T15:26:02;32.00;93.50
19496;DHT22;9888;48.606;9.630;2023-06-26T15:28:30;31.70;93.40
19496;DHT22;9888;48.606;9.630;2023-06-26T15:31:07;31.50;92.30
19496;DHT22;9888;48.606;9.630;2023-06-26T15:33:41;31.00;93.40
19496;DHT22;9888;48.606;9.630;2023-06-26T15:36:10;30.30;91.70
19496;DHT22;9888;48.606;9.630;2023-06-26T15:38:42;29.80;92.50
19496;DHT22;9888;48.606;9.630;2023-06-26T15:41:12;29.60;93.20
19496;DHT22;9888;48.606;9.630;2023-06-26T15:43:44;28.80;93.30
19496;DHT22;9888;48.606;9.630;2023-06-26T15:46:13;28.10;94.10
19496;DHT22;9888;48.606;9.630;2023-06-26T15:48:46;27.80;94.70
19496;DHT22;9888;48.606;9.630;2023-06-26T15:51:14;27.90;95.40
19496;DHT22;9888;48.606;9.630;2023-06-26T15:53:42;28.60;94.40
19496;DHT22;9888;48.606;9.630;2023-06-26T15:56:10;29.20;94.40
19496;DHT22;9888;48.606;9.630;2023-06-26T15:58:44;29.80;93.50
19496;DHT22;9888;48.606;9.630;2023-06-26T16:01:15;29.90;93.90
19496;DHT22;9888;48.606;9.630;2023-06-26T16:03:44;29.80;93.60
19496;DHT22;9888;48.606;9.630;2023-06-26T16:06:14;29.10;94.10
19496;DHT22;9888;48.606;9.630;2023-06-26T16:08:44;28.50;94.30
19496;DHT22;9888;48.606;9.630;2023-06-26T16:11:14;28.00;94.60
19496;DHT22;9888;48.606;9.630;2023-06-26T16:13:43;28.10;95.10
19496;DHT22;9888;48.606;9.630;2023-06-26T16:16:12;28.00;94.80
19496;DHT22;9888;48.606;9.630;2023-06-26T16:18:41;27.80;95.10
19496;DHT22;9888;48.606;9.630;2023-06-26T16:21:10;28.30;94.80
19496;DHT22;9888;48.606;9.630;2023-06-26T16:23:41;28.60;95.30
19496;DHT22;9888;48.606;9.630;2023-06-26T16:26:18;28.90;94.90
19496;DHT22;9888;48.606;9.630;2023-06-26T16:28:45;28.60;94.30
19496;DHT22;9888;48.606;9.630;2023-06-26T16:31:14;27.70;94.90
19496;DHT22;9888;48.606;9.630;2023-06-26T16:33:41;27.20;95.80
19496;DHT22;9888;48.606;9.630;2023-06-26T16:36:11;26.70;96.30
19496;DHT22;9888;48.606;9.630;2023-06-26T16:38:39;26.60;97.20
19496;DHT22;9888;48.606;9.630;2023-06-26T16:44:25;27.20;95.90
19496;DHT22;9888;48.606;9.630;2023-06-26T16:46:56;26.60;96.00
19496;DHT22;9888;48.606;9.630;2023-06-26T16:49:29;26.10;96.40
19496;DHT22;9888;48.606;9.630;2023-06-26T16:51:57;26.20;96.30
19496;DHT22;9888;48.606;9.630;2023-06-26T16:54:28;25.90;96.80
19496;DHT22;9888;48.606;9.630;2023-06-26T16:56:56;25.90;97.30
19496;DHT22;9888;48.606;9.630;2023-06-26T16:59:29;26.00;97.10
19496;DHT22;9888;48.606;9.630;2023-06-26T17:01:58;26.30;96.90
19496;DHT22;9888;48.606;9.630;2023-06-26T17:04:31;26.30;96.20
19496;DHT22;9888;48.606;9.630;2023-06-26T17:06:59;25.80;96.70
19496;DHT22;9888;48.606;9.630;2023-06-26T17:09:41;25.40;97.10
19496;DHT22;9888;48.606;9.630;2023-06-26T17:12:14;25.10;97.50
19496;DHT22;9888;48.606;9.630;2023-06-26T17:14:42;24.80;98.10